createdAt,value
2023-02-23T00:01:47.222Z,45.00
2023-02-23T00:04:14.213Z,40.00
2023-02-23T00:06:41.183Z,42.80
2023-02-23T00:09:23.943Z,39.40
2023-02-23T00:11:52.738Z,35.10
2023-02-23T00:14:20.117Z,43.30
2023-02-23T00:16:47.107Z,44.70
2023-02-23T00:19:14.350Z,45.00
2023-02-23T00:21:41.551Z,39.20
2023-02-23T00:24:11.146Z,41.90
2023-02-23T00:26:39.269Z,31.40
2023-02-23T00:29:10.554Z,39.40
2023-02-23T00:31:38.269Z,42.60
2023-02-23T00:34:05.781Z,34.00
2023-02-23T00:36:34.973Z,38.40
2023-02-23T00:39:20.781Z,42.00
2023-02-23T00:41:51.952Z,35.40
2023-02-23T00:44:21.073Z,34.10
2023-02-23T00:46:50.800Z,40.30
2023-02-23T00:49:19.529Z,37.40
2023-02-23T00:51:46.666Z,46.10
2023-02-23T00:54:15.860Z,41.60
2023-02-23T00:56:43.054Z,31.50
2023-02-23T00:59:11.603Z,44.10
2023-02-23T01:01:41.190Z,40.40
2023-02-23T01:04:09.283Z,36.40
2023-02-23T01:06:37.242Z,35.50
2023-02-23T01:09:14.204Z,41.40
2023-02-23T01:11:41.671Z,30.80
2023-02-23T01:14:09.929Z,34.80
2023-02-23T01:16:38.330Z,32.50
2023-02-23T01:19:06.681Z,34.70
2023-02-23T01:21:37.169Z,26.60
2023-02-23T01:24:05.079Z,32.00
2023-02-23T01:26:38.046Z,28.90
2023-02-23T01:29:14.616Z,31.00
2023-02-23T01:31:47.693Z,31.10
2023-02-23T01:34:21.030Z,33.50
2023-02-23T01:36:48.468Z,29.50
2023-02-23T01:39:18.041Z,35.40
2023-02-23T01:41:45.576Z,31.70
2023-02-23T01:44:12.514Z,36.30
2023-02-23T01:46:43.176Z,36.40
2023-02-23T01:49:19.505Z,35.00
2023-02-23T01:51:51.909Z,36.50
2023-02-23T01:54:24.044Z,35.30
2023-02-23T01:56:57.736Z,37.00
2023-02-23T01:59:37.640Z,32.50
2023-02-23T02:02:04.886Z,36.00
2023-02-23T02:04:43.843Z,34.00
2023-02-23T02:07:17.837Z,32.90
2023-02-23T02:10:08.186Z,31.40
2023-02-23T02:12:35.138Z,28.10
2023-02-23T02:15:05.089Z,27.40
2023-02-23T02:17:56.396Z,27.50
2023-02-23T02:20:42.377Z,31.50
2023-02-23T02:23:30.869Z,32.20
2023-02-23T02:26:23.800Z,20.40
2023-02-23T02:28:50.732Z,31.50
2023-02-23T02:31:39.454Z,30.00
2023-02-23T02:34:37.199Z,32.00
2023-02-23T02:37:18.794Z,29.40
2023-02-23T02:40:18.028Z,31.70
2023-02-23T02:43:08.048Z,28.30
2023-02-23T02:45:52.817Z,26.80
2023-02-23T02:48:46.662Z,27.20
2023-02-23T02:51:25.436Z,32.20
2023-02-23T02:54:06.039Z,31.30
2023-02-23T02:56:39.759Z,25.80
2023-02-23T02:59:30.183Z,29.90
2023-02-23T03:02:16.237Z,29.40
2023-02-23T03:05:02.367Z,30.90
2023-02-23T03:07:57.121Z,27.50
2023-02-23T03:10:48.548Z,29.60
2023-02-23T03:13:40.001Z,31.90
2023-02-23T03:17:04.570Z,30.10
2023-02-23T03:19:57.561Z,28.30
2023-02-23T03:23:22.620Z,28.60
2023-02-23T03:26:32.352Z,31.00
2023-02-23T03:29:19.277Z,28.40
2023-02-23T03:32:17.451Z,30.80
2023-02-23T03:35:08.388Z,33.60
2023-02-23T03:38:10.614Z,36.30
2023-02-23T03:40:59.931Z,35.90
2023-02-23T03:43:55.467Z,33.00
2023-02-23T03:46:45.129Z,33.80
2023-02-23T03:49:32.534Z,30.90
2023-02-23T03:52:25.533Z,32.90
2023-02-23T03:55:18.997Z,34.20
2023-02-23T04:00:58.966Z,27.60
2023-02-23T04:03:46.846Z,27.50
2023-02-23T04:06:35.278Z,29.00
2023-02-23T04:09:24.844Z,24.00
2023-02-23T04:12:22.591Z,26.40
2023-02-23T04:15:06.567Z,25.10
2023-02-23T04:17:34.042Z,23.50
2023-02-23T04:20:01.062Z,27.00
2023-02-23T04:22:28.159Z,27.60
2023-02-23T04:24:55.799Z,28.60
2023-02-23T04:27:22.857Z,24.50
2023-02-23T04:29:49.843Z,29.50
2023-02-23T04:32:20.356Z,31.60
2023-02-23T04:34:47.497Z,35.50
2023-02-23T04:37:15.949Z,32.40
2023-02-23T04:39:47.886Z,24.70
2023-02-23T04:42:18.479Z,20.20
2023-02-23T04:44:45.719Z,24.70
2023-02-23T04:47:15.300Z,24.80
2023-02-23T04:49:43.561Z,31.40
2023-02-23T04:52:10.696Z,33.30
2023-02-23T04:54:41.342Z,24.40
2023-02-23T04:57:09.514Z,30.00
2023-02-23T04:59:36.932Z,30.30
2023-02-23T05:02:04.153Z,30.40
2023-02-23T05:04:31.491Z,26.50
2023-02-23T05:06:58.485Z,21.00
2023-02-23T05:09:25.557Z,28.90
2023-02-23T05:11:52.554Z,35.00
2023-02-23T05:14:19.521Z,29.30
2023-02-23T05:16:46.581Z,34.90
2023-02-23T05:19:13.681Z,32.60
2023-02-23T05:21:41.333Z,37.30
2023-02-23T05:24:08.747Z,36.20
2023-02-23T05:26:36.435Z,37.10
2023-02-23T05:29:03.871Z,38.20
2023-02-23T05:31:30.984Z,36.70
2023-02-23T05:33:58.027Z,42.50
2023-02-23T05:36:25.002Z,32.90
2023-02-23T05:38:52.020Z,28.50
2023-02-23T05:41:21.397Z,23.60
2023-02-23T05:43:51.735Z,32.60
2023-02-23T05:46:25.488Z,38.40
2023-02-23T05:48:58.523Z,34.20
2023-02-23T05:53:52.557Z,34.90
2023-02-23T05:56:20.649Z,36.00
2023-02-23T05:58:48.863Z,24.90
2023-02-23T06:01:17.203Z,33.90
2023-02-23T06:03:45.164Z,29.00
2023-02-23T06:06:12.698Z,24.10
2023-02-23T06:08:39.885Z,36.80
2023-02-23T06:11:07.336Z,36.40
2023-02-23T06:13:34.584Z,39.90
2023-02-23T06:16:02.351Z,33.80
2023-02-23T06:18:29.895Z,33.50
2023-02-23T06:21:00.574Z,30.30
2023-02-23T06:23:29.037Z,30.10
2023-02-23T06:25:56.420Z,28.90
2023-02-23T06:28:23.581Z,33.70
2023-02-23T06:30:54.492Z,41.50
2023-02-23T06:33:22.134Z,31.50
2023-02-23T06:35:49.231Z,36.00
2023-02-23T06:38:16.411Z,35.40
2023-02-23T06:40:43.442Z,33.60
2023-02-23T06:43:10.966Z,29.50
2023-02-23T06:45:38.719Z,30.40
2023-02-23T06:48:06.261Z,35.10
2023-02-23T06:50:33.265Z,34.20
2023-02-23T06:53:00.216Z,35.20
2023-02-23T06:55:27.216Z,36.40
2023-02-23T06:57:54.890Z,37.50
2023-02-23T07:00:22.362Z,40.40
2023-02-23T07:02:49.510Z,37.00
2023-02-23T07:05:16.803Z,46.20
2023-02-23T07:07:44.969Z,37.90
2023-02-23T07:10:12.374Z,50.20
2023-02-23T07:12:39.410Z,41.70
2023-02-23T07:15:07.253Z,45.80
2023-02-23T07:17:34.304Z,43.00
2023-02-23T07:20:02.198Z,40.00
2023-02-23T07:22:30.886Z,44.00
2023-02-23T07:24:57.870Z,38.50
2023-02-23T07:27:24.902Z,32.30
2023-02-23T07:29:51.946Z,40.80
2023-02-23T07:32:19.122Z,48.20
2023-02-23T07:34:47.206Z,32.80
2023-02-23T07:37:14.454Z,40.60
2023-02-23T07:39:41.479Z,44.40
2023-02-23T07:42:08.455Z,58.80
2023-02-23T07:44:35.925Z,41.10
2023-02-23T07:47:03.342Z,39.60
2023-02-23T07:49:30.815Z,46.40
2023-02-23T07:51:58.151Z,46.50
2023-02-23T07:54:26.019Z,63.10
2023-02-23T07:56:53.127Z,57.40
2023-02-23T07:59:21.276Z,58.10
2023-02-23T08:01:48.290Z,53.10
2023-02-23T08:04:15.218Z,55.30
2023-02-23T08:06:42.804Z,55.40
2023-02-23T08:09:11.246Z,45.90
2023-02-23T08:11:38.246Z,49.80
2023-02-23T08:14:05.267Z,50.70
2023-02-23T08:16:33.091Z,54.20
2023-02-23T08:19:00.955Z,44.30
2023-02-23T08:21:29.641Z,53.80
2023-02-23T08:23:57.680Z,42.40
2023-02-23T08:26:25.149Z,43.40
2023-02-23T08:28:53.743Z,42.10
2023-02-23T08:31:23.309Z,33.20
2023-02-23T08:33:51.453Z,37.80
2023-02-23T08:36:20.089Z,51.50
2023-02-23T08:38:47.377Z,40.40
2023-02-23T08:41:15.213Z,42.50
2023-02-23T08:43:42.447Z,45.00
2023-02-23T08:46:11.241Z,34.60
2023-02-23T08:48:39.918Z,35.00
2023-02-23T08:51:07.619Z,47.00
2023-02-23T08:53:35.311Z,38.00
2023-02-23T08:56:05.564Z,31.30
2023-02-23T08:58:33.537Z,38.10
2023-02-23T09:01:01.581Z,30.10
2023-02-23T09:03:30.137Z,37.30
2023-02-23T09:06:04.060Z,44.00
2023-02-23T09:08:31.098Z,40.40
2023-02-23T09:10:58.044Z,29.80
2023-02-23T09:13:25.021Z,33.40
2023-02-23T09:15:51.991Z,32.80
2023-02-23T09:18:19.006Z,41.90
2023-02-23T09:20:46.016Z,31.40
2023-02-23T09:23:13.046Z,37.80
2023-02-23T09:25:44.009Z,32.20
2023-02-23T09:28:13.106Z,36.80
2023-02-23T09:30:41.830Z,28.00
2023-02-23T09:33:09.911Z,27.70
2023-02-23T09:35:37.116Z,30.80
2023-02-23T09:38:06.387Z,29.10
2023-02-23T09:40:46.666Z,28.20
2023-02-23T09:43:16.339Z,26.00
2023-02-23T09:45:57.769Z,21.70
2023-02-23T09:48:27.980Z,25.30
2023-02-23T09:50:57.359Z,25.80
2023-02-23T09:53:31.193Z,26.50
2023-02-23T09:56:00.380Z,21.30
2023-02-23T09:58:32.003Z,21.90
2023-02-23T10:01:04.897Z,20.50
2023-02-23T10:03:37.167Z,26.20
2023-02-23T10:06:08.707Z,18.10
2023-02-23T10:08:48.433Z,26.30
2023-02-23T10:11:51.038Z,19.90
2023-02-23T10:14:46.875Z,19.50
2023-02-23T10:17:16.773Z,20.10
2023-02-23T10:20:22.665Z,15.60
2023-02-23T10:22:50.761Z,19.20
2023-02-23T10:25:25.127Z,17.70
2023-02-23T10:27:55.268Z,19.50
2023-02-23T10:30:28.998Z,18.50
2023-02-23T10:33:04.123Z,21.80
2023-02-23T10:35:31.665Z,20.40
2023-02-23T10:38:00.560Z,26.80
2023-02-23T10:40:31.619Z,17.60
2023-02-23T10:43:01.920Z,22.80
2023-02-23T10:45:33.944Z,14.40
2023-02-23T10:48:07.054Z,15.50
2023-02-23T10:53:16.038Z,20.90
2023-02-23T10:55:47.779Z,27.80
2023-02-23T10:58:18.535Z,19.50
2023-02-23T11:01:04.697Z,19.10
2023-02-23T11:03:43.009Z,21.60
2023-02-23T11:06:32.712Z,20.20
2023-02-23T11:09:24.850Z,18.30
2023-02-23T11:12:02.072Z,16.80
2023-02-23T11:14:30.903Z,21.50
2023-02-23T11:16:59.802Z,15.40
2023-02-23T11:19:34.111Z,23.00
2023-02-23T11:22:01.421Z,12.60
2023-02-23T11:24:33.435Z,10.20
2023-02-23T11:27:07.412Z,13.90
2023-02-23T11:29:38.693Z,14.20
2023-02-23T11:32:20.727Z,16.40
2023-02-23T11:35:08.540Z,14.20
2023-02-23T11:37:36.743Z,9.20
2023-02-23T11:40:21.651Z,9.60
2023-02-23T11:43:06.784Z,11.70
2023-02-23T11:45:44.138Z,12.40
2023-02-23T11:48:21.850Z,14.40
2023-02-23T11:50:49.711Z,13.90
2023-02-23T11:53:28.020Z,12.00
2023-02-23T11:56:02.148Z,11.60
2023-02-23T11:58:51.090Z,12.40
2023-02-23T12:01:23.374Z,13.00
2023-02-23T12:03:56.830Z,11.30
2023-02-23T12:06:30.703Z,14.20
2023-02-23T12:09:12.468Z,11.90
2023-02-23T12:11:48.419Z,10.00
2023-02-23T12:14:40.631Z,16.10
2023-02-23T12:17:38.223Z,10.40
2023-02-23T12:20:14.891Z,10.70
2023-02-23T12:22:47.420Z,11.70
2023-02-23T12:25:29.421Z,15.90
2023-02-23T12:28:18.785Z,9.30
2023-02-23T12:30:54.213Z,10.00
2023-02-23T12:33:29.607Z,12.90
2023-02-23T12:36:03.364Z,8.70
2023-02-23T12:38:52.117Z,12.70
2023-02-23T12:41:39.628Z,14.30
2023-02-23T12:44:31.090Z,9.60
2023-02-23T12:47:04.407Z,12.10
2023-02-23T12:49:38.798Z,11.10
2023-02-23T12:52:39.457Z,13.00
2023-02-23T12:55:11.544Z,10.00
2023-02-23T12:58:05.676Z,11.80
2023-02-23T13:00:52.586Z,12.30
2023-02-23T13:03:29.124Z,12.40
2023-02-23T13:06:11.088Z,10.10
2023-02-23T13:08:56.638Z,13.90
2023-02-23T13:11:48.293Z,12.10
2023-02-23T13:14:29.275Z,10.00
2023-02-23T13:17:06.543Z,13.20
2023-02-23T13:19:44.311Z,13.50
2023-02-23T13:22:30.163Z,12.70
2023-02-23T13:25:04.549Z,15.50
2023-02-23T13:27:40.034Z,14.30
2023-02-23T13:30:11.499Z,11.80
2023-02-23T13:32:39.114Z,12.30
2023-02-23T13:35:13.170Z,11.80
2023-02-23T13:37:45.640Z,14.90
2023-02-23T13:40:29.336Z,12.10
2023-02-23T13:43:16.960Z,20.20
2023-02-23T13:45:58.792Z,12.10
2023-02-23T13:48:56.239Z,13.50
2023-02-23T13:51:30.682Z,14.50
2023-02-23T13:53:59.307Z,16.00
2023-02-23T13:56:29.175Z,14.10
2023-02-23T13:59:00.588Z,17.80
2023-02-23T14:01:44.755Z,25.70
2023-02-23T14:04:21.366Z,15.20
2023-02-23T14:07:28.130Z,15.50
2023-02-23T14:09:58.804Z,14.70
2023-02-23T14:12:39.635Z,12.00
2023-02-23T14:15:24.839Z,11.50
2023-02-23T14:18:00.226Z,11.70
2023-02-23T14:20:39.384Z,14.00
2023-02-23T14:23:17.838Z,13.90
2023-02-23T14:25:46.575Z,17.90
2023-02-23T14:28:30.147Z,20.40
2023-02-23T14:31:08.093Z,15.40
2023-02-23T14:33:37.653Z,17.40
2023-02-23T14:36:23.355Z,22.70
2023-02-23T14:39:13.694Z,22.60
2023-02-23T14:41:52.825Z,18.60
2023-02-23T14:44:29.898Z,24.60
2023-02-23T14:47:08.360Z,13.50
2023-02-23T14:49:39.952Z,13.40
2023-02-23T14:52:28.511Z,15.30
2023-02-23T14:55:21.039Z,15.00
2023-02-23T14:57:49.178Z,15.90
2023-02-23T15:00:23.985Z,14.00
2023-02-23T15:03:08.736Z,15.00
2023-02-23T15:05:42.481Z,18.40
2023-02-23T15:08:14.895Z,13.50
2023-02-23T15:10:44.546Z,16.60
2023-02-23T15:13:31.151Z,19.30
2023-02-23T15:16:03.281Z,15.40
2023-02-23T15:18:36.995Z,16.90
2023-02-23T15:21:20.045Z,20.20
2023-02-23T15:26:51.992Z,19.10
2023-02-23T15:29:22.294Z,16.90
2023-02-23T15:31:52.381Z,18.60
2023-02-23T15:34:24.291Z,18.70
2023-02-23T15:37:01.190Z,18.40
2023-02-23T15:40:09.658Z,18.10
2023-02-23T15:42:44.136Z,18.20
2023-02-23T15:45:29.573Z,16.60
2023-02-23T15:48:04.986Z,19.00
2023-02-23T15:50:37.290Z,19.30
2023-02-23T15:53:19.122Z,19.80
2023-02-23T15:55:47.350Z,20.40
2023-02-23T15:58:24.369Z,21.00
2023-02-23T16:00:58.008Z,17.80
2023-02-23T16:03:37.495Z,23.30
2023-02-23T16:06:25.813Z,21.20
2023-02-23T16:08:58.153Z,23.80
2023-02-23T16:11:26.386Z,34.20
2023-02-23T16:13:54.462Z,39.40
2023-02-23T16:16:24.826Z,49.40
2023-02-23T16:18:54.881Z,65.70
2023-02-23T16:21:24.487Z,46.10
2023-02-23T16:23:54.882Z,25.50
2023-02-23T16:26:33.936Z,24.90
2023-02-23T16:29:04.009Z,27.10
2023-02-23T16:31:44.508Z,26.20
2023-02-23T16:34:47.775Z,27.40
2023-02-23T16:37:22.582Z,35.60
2023-02-23T16:39:49.692Z,49.10
2023-02-23T16:42:33.227Z,45.10
2023-02-23T16:45:01.545Z,41.90
2023-02-23T16:47:35.813Z,48.30
2023-02-23T16:50:21.095Z,59.50
2023-02-23T16:52:53.758Z,62.40
2023-02-23T16:55:27.298Z,69.90
2023-02-23T17:00:29.240Z,49.70
2023-02-23T17:02:57.696Z,60.90
2023-02-23T17:05:24.891Z,51.90
2023-02-23T17:07:53.221Z,36.90
2023-02-23T17:10:46.242Z,37.90
2023-02-23T17:13:22.711Z,36.40
2023-02-23T17:15:53.043Z,32.90
2023-02-23T17:18:31.050Z,35.70
2023-02-23T17:21:01.631Z,38.70
2023-02-23T17:23:37.744Z,35.40
2023-02-23T17:26:10.875Z,38.40
2023-02-23T17:28:39.967Z,39.40
2023-02-23T17:31:07.503Z,37.10
2023-02-23T17:33:36.580Z,34.90
2023-02-23T17:36:05.622Z,47.70
2023-02-23T17:38:35.291Z,42.20
2023-02-23T17:41:12.755Z,41.20
2023-02-23T17:43:40.142Z,49.70
2023-02-23T17:46:08.073Z,53.00
2023-02-23T17:48:35.334Z,57.30
2023-02-23T17:51:09.638Z,59.90
2023-02-23T17:53:36.647Z,57.90
2023-02-23T17:56:04.364Z,57.10
2023-02-23T17:58:31.670Z,49.60
2023-02-23T18:01:02.189Z,53.00
2023-02-23T18:03:31.556Z,63.50
2023-02-23T18:06:08.384Z,66.90
2023-02-23T18:08:37.916Z,71.00
2023-02-23T18:11:05.343Z,68.80
2023-02-23T18:13:35.836Z,73.70
2023-02-23T18:16:08.494Z,74.00
2023-02-23T18:18:41.804Z,83.70
2023-02-23T18:21:14.862Z,82.40
2023-02-23T18:26:21.094Z,85.10
2023-02-23T18:28:48.412Z,76.50
2023-02-23T18:31:24.768Z,73.50
2023-02-23T18:33:55.788Z,67.40
2023-02-23T18:36:29.317Z,61.30
2023-02-23T18:38:59.269Z,42.20
2023-02-23T18:41:30.266Z,49.40
2023-02-23T18:44:01.668Z,49.40
2023-02-23T18:46:29.730Z,57.80
2023-02-23T18:48:56.936Z,57.50
2023-02-23T18:51:25.162Z,65.50
2023-02-23T18:53:53.097Z,66.80
2023-02-23T18:56:27.488Z,69.80
2023-02-23T18:58:58.639Z,73.30
2023-02-23T19:01:32.844Z,67.40
2023-02-23T19:04:02.016Z,69.50
2023-02-23T19:06:30.033Z,69.30
2023-02-23T19:08:59.453Z,63.90
2023-02-23T19:11:30.030Z,66.10
2023-02-23T19:14:00.443Z,59.10
2023-02-23T19:16:30.757Z,78.00
2023-02-23T19:18:59.580Z,70.50
2023-02-23T19:21:27.555Z,68.70
2023-02-23T19:23:57.981Z,76.00
2023-02-23T19:26:26.123Z,74.60
2023-02-23T19:28:53.478Z,70.50
2023-02-23T19:31:23.883Z,72.80
2023-02-23T19:33:53.485Z,76.10
2023-02-23T19:36:23.165Z,72.70
2023-02-23T19:38:50.336Z,74.00
2023-02-23T19:41:19.724Z,59.30
2023-02-23T19:43:47.058Z,63.00
2023-02-23T19:46:16.742Z,59.50
2023-02-23T19:48:51.254Z,64.70
2023-02-23T19:51:20.541Z,68.40
2023-02-23T19:53:48.198Z,62.30
2023-02-23T19:56:16.721Z,62.70
2023-02-23T19:58:46.127Z,67.50
2023-02-23T20:01:17.130Z,67.60
2023-02-23T20:03:54.685Z,77.30
2023-02-23T20:06:27.296Z,83.10
2023-02-23T20:09:01.943Z,111.80
2023-02-23T20:11:29.595Z,95.10
2023-02-23T20:13:57.309Z,116.00
2023-02-23T20:16:29.249Z,93.50
2023-02-23T20:18:57.599Z,71.10
2023-02-23T20:21:26.337Z,74.60
2023-02-23T20:23:55.407Z,73.00
2023-02-23T20:26:28.678Z,69.30
2023-02-23T20:31:31.423Z,64.90
2023-02-23T20:34:02.643Z,66.40
2023-02-23T20:36:29.853Z,67.60
2023-02-23T20:38:57.031Z,72.00
2023-02-23T20:41:27.456Z,72.40
2023-02-23T20:43:55.697Z,77.60
2023-02-23T20:46:23.734Z,75.40
2023-02-23T20:48:50.926Z,73.70
2023-02-23T20:51:18.686Z,74.70
2023-02-23T20:53:49.261Z,83.40
2023-02-23T20:56:21.644Z,63.60
2023-02-23T20:58:49.515Z,75.40
2023-02-23T21:01:21.943Z,66.60
2023-02-23T21:03:52.843Z,71.50
2023-02-23T21:06:22.430Z,73.70
2023-02-23T21:08:50.464Z,75.30
2023-02-23T21:11:21.411Z,72.90
2023-02-23T21:13:48.685Z,78.20
2023-02-23T21:16:18.288Z,70.40
2023-02-23T21:18:45.707Z,72.10
2023-02-23T21:21:15.087Z,70.90
2023-02-23T21:23:45.318Z,73.60
2023-02-23T21:26:15.524Z,70.00
2023-02-23T21:28:44.831Z,67.40
2023-02-23T21:31:13.389Z,67.40
2023-02-23T21:33:42.587Z,69.20
2023-02-23T21:36:10.654Z,70.00
2023-02-23T21:38:39.481Z,72.00
2023-02-23T21:41:07.357Z,67.00
2023-02-23T21:43:36.404Z,70.70
2023-02-23T21:46:11.787Z,77.70
2023-02-23T21:48:39.262Z,71.00
2023-02-23T21:51:11.038Z,85.10
2023-02-23T21:53:39.171Z,69.40
2023-02-23T21:56:11.010Z,74.70
2023-02-23T21:58:39.666Z,79.10
2023-02-23T22:01:11.859Z,66.60
2023-02-23T22:03:44.486Z,75.20
2023-02-23T22:06:16.978Z,67.40
2023-02-23T22:08:45.107Z,62.80
2023-02-23T22:11:16.821Z,61.30
2023-02-23T22:13:45.229Z,65.60
2023-02-23T22:16:15.050Z,66.70
2023-02-23T22:18:42.742Z,69.20
2023-02-23T22:21:13.913Z,87.40
2023-02-23T22:23:46.369Z,66.30
2023-02-23T22:26:27.649Z,69.40
2023-02-23T22:28:54.632Z,67.20
2023-02-23T22:31:21.975Z,68.60
2023-02-23T22:33:49.434Z,70.80
2023-02-23T22:36:17.894Z,69.10
2023-02-23T22:38:45.976Z,74.80
2023-02-23T22:41:13.382Z,66.60
2023-02-23T22:43:45.220Z,78.10
2023-02-23T22:46:14.882Z,76.60
2023-02-23T22:48:46.246Z,81.20
2023-02-23T22:51:15.411Z,73.80
2023-02-23T22:53:43.497Z,70.60
2023-02-23T22:56:12.168Z,57.70
2023-02-23T22:58:41.483Z,85.10
2023-02-23T23:01:11.406Z,74.00
2023-02-23T23:03:47.258Z,66.50
2023-02-23T23:06:17.459Z,70.60
2023-02-23T23:08:48.577Z,73.40
2023-02-23T23:11:19.318Z,78.50
2023-02-23T23:13:53.014Z,88.60
2023-02-23T23:19:11.327Z,81.00
2023-02-23T23:21:40.531Z,80.60
2023-02-23T23:24:09.378Z,80.00
2023-02-23T23:26:40.095Z,78.70
2023-02-23T23:29:10.702Z,71.60
2023-02-23T23:31:39.780Z,72.30
2023-02-23T23:34:10.270Z,62.90
2023-02-23T23:36:45.564Z,65.90
2023-02-23T23:39:15.486Z,76.20
2023-02-23T23:41:47.264Z,84.30
2023-02-23T23:44:21.161Z,79.20
2023-02-23T23:46:50.198Z,77.30
2023-02-23T23:49:20.149Z,73.10
2023-02-23T23:51:49.614Z,77.40
2023-02-23T23:54:20.994Z,71.60
2023-02-23T23:56:49.101Z,52.80
2023-02-23T23:59:19.722Z,59.30
